createdAt,value
2018-03-26T00:00:56.817Z,4.08
2018-03-26T00:03:25.227Z,4.08
2018-03-26T00:05:53.710Z,4.07
2018-03-26T00:08:22.295Z,4.06
2018-03-26T00:10:50.977Z,4.05
2018-03-26T00:13:21.008Z,4.03
2018-03-26T00:15:50.148Z,4.02
2018-03-26T00:18:18.515Z,3.99
2018-03-26T00:20:47.223Z,3.93
2018-03-26T00:23:15.670Z,3.85
2018-03-26T00:25:44.757Z,3.80
2018-03-26T00:28:13.479Z,3.78
2018-03-26T00:30:42.123Z,3.76
2018-03-26T00:33:11.630Z,3.75
2018-03-26T00:35:42.108Z,3.75
2018-03-26T00:38:12.095Z,3.76
2018-03-26T00:40:41.896Z,3.73
2018-03-26T00:43:10.811Z,3.69
2018-03-26T00:45:40.302Z,3.67
2018-03-26T00:48:09.738Z,3.69
2018-03-26T00:50:38.253Z,3.66
2018-03-26T00:53:08.164Z,3.66
2018-03-26T00:55:37.566Z,3.65
2018-03-26T00:58:06.410Z,3.68
2018-03-26T01:00:34.776Z,3.71
2018-03-26T01:03:10.045Z,3.73
2018-03-26T01:05:38.493Z,3.69
2018-03-26T01:08:07.193Z,3.69
2018-03-26T01:10:36.480Z,3.70
2018-03-26T01:13:05.361Z,3.74
2018-03-26T01:15:34.468Z,3.73
2018-03-26T01:18:04.392Z,3.70
2018-03-26T01:20:35.156Z,3.73
2018-03-26T01:23:03.639Z,3.74
2018-03-26T01:25:32.279Z,3.74
2018-03-26T01:28:00.677Z,3.75
2018-03-26T01:30:31.346Z,3.78
2018-03-26T01:33:00.151Z,3.83
2018-03-26T01:35:29.070Z,3.86
2018-03-26T01:37:57.622Z,3.88
2018-03-26T01:40:26.159Z,3.87
2018-03-26T01:42:55.030Z,3.86
2018-03-26T01:45:24.228Z,3.91
2018-03-26T01:47:52.589Z,3.97
2018-03-26T01:50:21.341Z,4.05
2018-03-26T01:52:50.830Z,4.10
2018-03-26T01:55:20.141Z,4.07
2018-03-26T01:57:49.174Z,3.97
2018-03-26T02:00:17.876Z,3.83
2018-03-26T02:02:46.613Z,3.67
2018-03-26T02:05:14.969Z,3.61
2018-03-26T02:07:44.362Z,3.63
2018-03-26T02:10:12.821Z,3.71
2018-03-26T02:12:41.824Z,3.78
2018-03-26T02:15:10.295Z,3.78
2018-03-26T02:17:38.703Z,3.73
2018-03-26T02:20:07.357Z,3.65
2018-03-26T02:22:37.096Z,3.61
2018-03-26T02:25:05.465Z,3.60
2018-03-26T02:27:34.924Z,3.59
2018-03-26T02:30:03.802Z,3.63
2018-03-26T02:32:33.798Z,3.70
2018-03-26T02:35:02.293Z,3.77
2018-03-26T02:37:32.388Z,3.82
2018-03-26T02:40:01.016Z,3.85
2018-03-26T02:42:29.641Z,3.82
2018-03-26T02:45:00.086Z,3.78
2018-03-26T02:47:30.140Z,3.79
2018-03-26T02:49:58.739Z,3.81
2018-03-26T02:52:27.162Z,3.82
2018-03-26T02:54:56.362Z,3.83
2018-03-26T02:57:25.008Z,3.84
2018-03-26T02:59:54.001Z,3.83
2018-03-26T03:02:23.211Z,3.78
2018-03-26T03:04:51.898Z,3.74
2018-03-26T03:07:20.692Z,3.73
2018-03-26T03:09:49.872Z,3.72
2018-03-26T03:12:18.228Z,3.69
2018-03-26T03:14:47.141Z,3.69
2018-03-26T03:17:16.086Z,3.70
2018-03-26T03:19:44.445Z,3.69
2018-03-26T03:22:13.005Z,3.69
2018-03-26T03:24:41.548Z,3.70
2018-03-26T03:27:09.922Z,3.73
2018-03-26T03:29:38.279Z,3.73
2018-03-26T03:32:07.262Z,3.72
2018-03-26T03:34:35.948Z,3.73
2018-03-26T03:37:04.618Z,3.72
2018-03-26T03:39:33.165Z,3.69
2018-03-26T03:42:01.668Z,3.67
2018-03-26T03:44:30.020Z,3.64
2018-03-26T03:46:59.877Z,3.61
2018-03-26T03:49:28.962Z,3.60
2018-03-26T03:51:57.995Z,3.62
2018-03-26T03:54:26.784Z,3.67
2018-03-26T03:56:55.601Z,3.70
2018-03-26T03:59:24.084Z,3.69
2018-03-26T04:01:52.875Z,3.67
2018-03-26T04:04:21.436Z,3.69
2018-03-26T04:06:49.908Z,3.72
2018-03-26T04:09:18.701Z,3.76
2018-03-26T04:11:47.059Z,3.78
2018-03-26T04:14:16.646Z,3.79
2018-03-26T04:16:45.643Z,3.81
2018-03-26T04:19:14.281Z,3.86
2018-03-26T04:21:44.523Z,3.86
2018-03-26T04:24:12.965Z,3.87
2018-03-26T04:26:41.325Z,3.87
2018-03-26T04:29:09.693Z,3.85
2018-03-26T04:31:39.236Z,3.84
2018-03-26T04:34:08.103Z,3.83
2018-03-26T04:36:36.971Z,3.79
2018-03-26T04:39:06.113Z,3.76
2018-03-26T04:41:34.531Z,3.77
2018-03-26T04:44:02.910Z,3.82
2018-03-26T04:46:31.262Z,3.88
2018-03-26T04:48:59.638Z,3.84
2018-03-26T04:51:29.071Z,3.74
2018-03-26T04:53:58.397Z,3.66
2018-03-26T04:56:27.682Z,3.65
2018-03-26T04:58:56.550Z,3.64
2018-03-26T05:01:26.101Z,3.63
2018-03-26T05:03:54.728Z,3.65
2018-03-26T05:06:23.520Z,3.71
2018-03-26T05:08:51.908Z,3.78
2018-03-26T05:11:20.811Z,3.90
2018-03-26T05:13:49.198Z,4.06
2018-03-26T05:16:19.235Z,4.27
2018-03-26T05:18:49.182Z,4.37
2018-03-26T05:21:17.632Z,4.42
2018-03-26T05:23:46.425Z,4.45
2018-03-26T05:26:15.071Z,4.47
2018-03-26T05:28:44.039Z,4.51
2018-03-26T05:31:13.289Z,4.61
2018-03-26T05:33:42.529Z,4.72
2018-03-26T05:36:11.466Z,4.79
2018-03-26T05:38:40.698Z,4.84
2018-03-26T05:41:10.250Z,4.86
2018-03-26T05:43:39.588Z,4.85
2018-03-26T05:46:09.900Z,4.83
2018-03-26T05:48:38.804Z,4.84
2018-03-26T05:51:07.200Z,4.87
2018-03-26T05:53:35.976Z,4.91
2018-03-26T05:56:05.918Z,4.92
2018-03-26T05:58:34.859Z,4.92
2018-03-26T06:01:04.707Z,4.93
2018-03-26T06:03:34.219Z,4.95
2018-03-26T06:06:03.471Z,4.97
2018-03-26T06:08:33.039Z,4.95
2018-03-26T06:11:02.234Z,4.93
2018-03-26T06:13:32.955Z,4.96
2018-03-26T06:16:02.909Z,5.00
2018-03-26T06:18:31.710Z,5.05
2018-03-26T06:21:01.388Z,5.12
2018-03-26T06:23:30.085Z,5.19
2018-03-26T06:25:59.771Z,5.22
2018-03-26T06:28:28.617Z,5.23
2018-03-26T06:30:59.076Z,5.30
2018-03-26T06:33:28.183Z,5.35
2018-03-26T06:35:57.778Z,5.38
2018-03-26T06:38:32.424Z,5.40
2018-03-26T06:41:01.067Z,5.43
2018-03-26T06:43:29.489Z,5.42
2018-03-26T06:45:58.161Z,5.36
2018-03-26T06:48:26.653Z,5.27
2018-03-26T06:50:55.155Z,5.23
2018-03-26T06:53:23.529Z,5.22
2018-03-26T06:55:51.884Z,5.25
2018-03-26T06:58:20.734Z,5.28
2018-03-26T07:00:49.185Z,5.28
2018-03-26T07:03:18.389Z,5.29
2018-03-26T07:05:48.182Z,5.32
2018-03-26T07:08:17.631Z,5.38
2018-03-26T07:10:46.177Z,5.48
2018-03-26T07:13:15.347Z,5.58
2018-03-26T07:15:43.884Z,5.70
2018-03-26T07:18:12.278Z,5.77
2018-03-26T07:20:40.629Z,5.83
2018-03-26T07:23:09.386Z,5.86
2018-03-26T07:25:38.429Z,5.88
2018-03-26T07:28:06.938Z,5.90
2018-03-26T07:30:35.342Z,5.95
2018-03-26T07:33:04.464Z,6.01
2018-03-26T07:35:32.817Z,6.08
2018-03-26T07:38:02.044Z,6.13
2018-03-26T07:40:30.437Z,6.11
2018-03-26T07:42:59.048Z,6.08
2018-03-26T07:45:27.895Z,6.05
2018-03-26T07:47:56.286Z,6.04
2018-03-26T07:50:24.689Z,6.06
2018-03-26T07:52:53.904Z,6.08
2018-03-26T07:55:22.325Z,6.11
2018-03-26T07:57:52.115Z,6.12
2018-03-26T08:00:20.722Z,6.13
2018-03-26T08:02:50.059Z,6.13
2018-03-26T08:05:18.514Z,6.11
2018-03-26T08:07:47.830Z,6.06
2018-03-26T08:10:16.689Z,6.03
2018-03-26T08:12:45.114Z,5.99
2018-03-26T08:15:13.802Z,5.95
2018-03-26T08:17:42.708Z,5.96
2018-03-26T08:20:11.280Z,5.94
2018-03-26T08:22:39.639Z,5.92
2018-03-26T08:25:08.275Z,5.88
2018-03-26T08:27:36.746Z,5.89
2018-03-26T08:30:05.463Z,5.89
2018-03-26T08:32:34.682Z,5.89
2018-03-26T08:35:03.625Z,5.93
2018-03-26T08:37:32.681Z,5.93
2018-03-26T08:40:01.035Z,5.96
2018-03-26T08:42:29.457Z,5.99
2018-03-26T08:44:58.395Z,6.03
2018-03-26T08:47:27.947Z,6.04
2018-03-26T08:49:56.394Z,6.03
2018-03-26T08:52:25.583Z,6.04
2018-03-26T08:54:54.590Z,6.11
2018-03-26T08:57:23.446Z,6.16
2018-03-26T08:59:51.865Z,6.26
2018-03-26T09:02:21.335Z,6.41
2018-03-26T09:04:49.760Z,6.50
2018-03-26T09:07:18.671Z,6.53
2018-03-26T09:09:47.139Z,6.56
2018-03-26T09:12:15.526Z,6.65
2018-03-26T09:14:43.872Z,6.76
2018-03-26T09:17:12.224Z,6.81
2018-03-26T09:19:40.585Z,6.80
2018-03-26T09:22:09.253Z,6.92
2018-03-26T09:24:38.575Z,7.07
2018-03-26T09:27:07.368Z,7.20
2018-03-26T09:29:36.528Z,7.26
2018-03-26T09:32:05.141Z,7.28
2018-03-26T09:34:33.890Z,7.34
2018-03-26T09:37:03.271Z,7.39
2018-03-26T09:39:31.814Z,7.44
2018-03-26T09:42:00.606Z,7.55
2018-03-26T09:44:29.018Z,7.69
2018-03-26T09:46:57.541Z,7.75
2018-03-26T09:49:26.282Z,7.83
2018-03-26T09:51:55.841Z,7.92
2018-03-26T09:54:24.449Z,7.95
2018-03-26T09:56:53.559Z,8.16
2018-03-26T09:59:22.698Z,8.38
2018-03-26T10:01:57.199Z,8.61
2018-03-26T10:04:26.544Z,8.85
2018-03-26T10:06:56.078Z,8.99
2018-03-26T10:09:24.791Z,9.21
2018-03-26T10:11:53.343Z,9.41
2018-03-26T10:14:23.004Z,9.58
2018-03-26T10:16:51.357Z,9.83
2018-03-26T10:19:20.102Z,9.95
2018-03-26T10:21:49.160Z,10.15
2018-03-26T10:24:17.522Z,10.32
2018-03-26T10:26:46.654Z,10.38
2018-03-26T10:29:15.339Z,10.28
2018-03-26T10:31:44.020Z,10.18
2018-03-26T10:34:12.513Z,10.19
2018-03-26T10:36:40.981Z,10.15
2018-03-26T10:39:09.342Z,10.15
2018-03-26T10:41:37.833Z,10.15
2018-03-26T10:44:06.907Z,10.29
2018-03-26T10:46:35.467Z,10.49
2018-03-26T10:49:04.707Z,10.59
2018-03-26T10:51:33.308Z,10.58
2018-03-26T10:54:02.089Z,10.71
2018-03-26T10:56:31.320Z,10.82
2018-03-26T10:58:59.676Z,10.83
2018-03-26T11:01:29.378Z,10.74
2018-03-26T11:03:57.871Z,10.72
2018-03-26T11:06:26.362Z,10.69
2018-03-26T11:08:54.721Z,10.69
2018-03-26T11:11:23.627Z,10.67
2018-03-26T11:13:52.045Z,10.68
2018-03-26T11:16:20.896Z,10.56
2018-03-26T11:18:50.206Z,10.53
2018-03-26T11:21:19.032Z,10.60
2018-03-26T11:23:47.514Z,10.64
2018-03-26T11:26:16.317Z,10.58
2018-03-26T11:28:44.678Z,10.55
2018-03-26T11:31:14.229Z,10.51
2018-03-26T11:33:42.668Z,10.46
2018-03-26T11:36:11.627Z,10.38
2018-03-26T11:38:40.848Z,10.17
2018-03-26T11:41:09.617Z,10.15
2018-03-26T11:43:38.187Z,10.27
2018-03-26T11:46:06.766Z,10.58
2018-03-26T11:48:35.376Z,10.55
2018-03-26T11:51:03.746Z,10.42
2018-03-26T11:53:33.031Z,10.43
2018-03-26T11:56:01.570Z,10.70
2018-03-26T11:58:30.049Z,10.96
2018-03-26T12:00:58.737Z,11.10
2018-03-26T12:03:28.399Z,11.09
2018-03-26T12:05:57.328Z,10.93
2018-03-26T12:08:26.157Z,11.05
2018-03-26T12:10:54.545Z,11.15
2018-03-26T12:13:23.384Z,11.13
2018-03-26T12:15:52.025Z,11.37
2018-03-26T12:18:20.722Z,11.65
2018-03-26T12:21:00.244Z,11.88
2018-03-26T12:23:40.470Z,12.27
2018-03-26T12:26:08.899Z,12.23
2018-03-26T12:28:49.048Z,11.91
2018-03-26T12:31:17.885Z,11.49
2018-03-26T12:33:58.149Z,10.90
2018-03-26T12:36:27.448Z,10.58
2018-03-26T12:38:56.841Z,10.27
2018-03-26T12:41:27.706Z,10.01
2018-03-26T12:43:57.458Z,9.94
2018-03-26T12:46:37.785Z,9.78
2018-03-26T12:49:07.716Z,9.60
2018-03-26T12:51:47.942Z,9.66
2018-03-26T12:54:16.545Z,9.84
2018-03-26T12:56:45.314Z,10.08
2018-03-26T12:59:13.910Z,10.24
2018-03-26T13:01:55.290Z,10.51
2018-03-26T13:04:23.697Z,10.53
2018-03-26T13:06:53.088Z,10.90
2018-03-26T13:09:23.221Z,11.39
2018-03-26T13:11:54.071Z,11.04
2018-03-26T13:14:24.541Z,10.47
2018-03-26T13:16:54.166Z,10.21
2018-03-26T13:19:23.380Z,10.12
2018-03-26T13:21:51.883Z,10.19
2018-03-26T13:24:20.545Z,10.29
2018-03-26T13:26:50.125Z,10.03
2018-03-26T13:29:18.522Z,9.63
2018-03-26T13:31:46.878Z,9.24
2018-03-26T13:34:15.269Z,8.87
2018-03-26T13:36:43.636Z,8.64
2018-03-26T13:39:12.516Z,8.32
2018-03-26T13:41:41.183Z,8.21
2018-03-26T13:44:11.162Z,8.15
2018-03-26T13:46:39.541Z,8.09
2018-03-26T13:49:08.909Z,7.72
2018-03-26T13:51:37.337Z,7.45
2018-03-26T13:54:06.067Z,7.32
2018-03-26T13:56:34.513Z,7.24
2018-03-26T13:59:02.853Z,7.18
2018-03-26T14:01:31.438Z,6.91
2018-03-26T14:04:00.722Z,6.81
2018-03-26T14:06:29.103Z,6.73
2018-03-26T14:09:10.661Z,6.60
2018-03-26T14:14:53.998Z,6.46
2018-03-26T14:17:34.566Z,6.47
2018-03-26T14:20:03.246Z,6.35
2018-03-26T14:22:31.686Z,6.33
2018-03-26T14:25:00.401Z,6.24
2018-03-26T14:27:29.980Z,6.18
2018-03-26T14:29:59.422Z,6.15
2018-03-26T14:32:27.853Z,6.11
2018-03-26T14:35:08.236Z,6.14
2018-03-26T14:37:36.851Z,6.12
2018-03-26T14:40:05.441Z,6.13
2018-03-26T14:42:33.809Z,6.07
2018-03-26T14:45:02.747Z,5.92
2018-03-26T14:47:32.134Z,5.88
2018-03-26T14:50:00.655Z,5.85
2018-03-26T14:52:29.021Z,5.80
2018-03-26T14:54:57.689Z,5.79
2018-03-26T14:57:27.350Z,5.78
2018-03-26T14:59:56.153Z,5.78
2018-03-26T15:02:24.638Z,5.78
2018-03-26T15:04:53.062Z,5.83
2018-03-26T15:07:21.412Z,5.84
2018-03-26T15:09:50.119Z,5.87
2018-03-26T15:12:19.561Z,5.88
2018-03-26T15:14:47.989Z,5.85
2018-03-26T15:17:16.359Z,5.81
2018-03-26T15:19:45.417Z,5.81
2018-03-26T15:22:13.766Z,5.82
2018-03-26T15:24:42.431Z,5.79
2018-03-26T15:27:11.282Z,5.75
2018-03-26T15:29:39.658Z,5.73
2018-03-26T15:32:08.135Z,5.66
2018-03-26T15:34:36.485Z,5.63
2018-03-26T15:37:05.144Z,5.59
2018-03-26T15:39:33.917Z,5.57
2018-03-26T15:42:02.648Z,5.58
2018-03-26T15:44:31.016Z,5.61
2018-03-26T15:46:59.367Z,5.57
2018-03-26T15:49:28.000Z,5.51
2018-03-26T15:51:56.354Z,5.47
2018-03-26T15:54:25.052Z,5.47
2018-03-26T15:56:53.414Z,5.44
2018-03-26T15:59:22.017Z,5.38
2018-03-26T16:01:50.375Z,5.34
2018-03-26T16:04:18.757Z,5.29
2018-03-26T16:06:47.124Z,5.32
2018-03-26T16:09:15.489Z,5.37
2018-03-26T16:11:43.861Z,5.37
2018-03-26T16:14:13.727Z,5.39
2018-03-26T16:16:42.077Z,5.45
2018-03-26T16:19:10.426Z,5.46
2018-03-26T16:21:38.915Z,5.35
2018-03-26T16:24:07.786Z,5.31
2018-03-26T16:26:36.560Z,5.28
2018-03-26T16:29:04.907Z,5.22
2018-03-26T16:31:33.589Z,5.20
2018-03-26T16:34:02.383Z,5.15
2018-03-26T16:36:30.745Z,5.10
2018-03-26T16:38:59.630Z,5.08
2018-03-26T16:41:40.733Z,5.04
2018-03-26T16:44:09.741Z,4.97
2018-03-26T16:46:38.097Z,4.98
2018-03-26T16:49:06.523Z,5.02
2018-03-26T16:51:36.132Z,5.00
2018-03-26T16:54:04.533Z,4.92
2018-03-26T16:56:32.895Z,4.85
2018-03-26T16:59:01.255Z,4.84
2018-03-26T17:01:29.850Z,4.83
2018-03-26T17:03:58.219Z,4.85
2018-03-26T17:06:26.582Z,4.86
2018-03-26T17:08:54.937Z,4.86
2018-03-26T17:11:23.300Z,4.86
2018-03-26T17:13:51.662Z,4.82
2018-03-26T17:16:20.080Z,4.80
2018-03-26T17:18:48.734Z,4.83
2018-03-26T17:21:17.113Z,4.87
2018-03-26T17:23:45.469Z,4.89
2018-03-26T17:26:14.173Z,4.90
2018-03-26T17:28:42.526Z,4.90
2018-03-26T17:31:10.931Z,4.85
2018-03-26T17:33:39.285Z,4.79
2018-03-26T17:36:07.698Z,4.77
2018-03-26T17:38:36.458Z,4.71
2018-03-26T17:41:05.092Z,4.66
2018-03-26T17:43:34.385Z,4.65
2018-03-26T17:46:02.739Z,4.62
2018-03-26T17:48:31.458Z,4.55
2018-03-26T17:51:00.138Z,4.47
2018-03-26T17:53:29.040Z,4.41
2018-03-26T17:55:57.410Z,4.39
2018-03-26T17:58:25.812Z,4.37
2018-03-26T18:00:55.078Z,4.36
2018-03-26T18:03:23.772Z,4.39
2018-03-26T18:05:52.534Z,4.43
2018-03-26T18:08:20.887Z,4.45
2018-03-26T18:10:49.546Z,4.49
2018-03-26T18:13:18.702Z,4.51
2018-03-26T18:15:48.495Z,4.53
2018-03-26T18:18:17.268Z,4.56
2018-03-26T18:20:46.599Z,4.62
2018-03-26T18:23:15.078Z,4.68
2018-03-26T18:25:43.526Z,4.66
2018-03-26T18:28:12.026Z,4.62
2018-03-26T18:30:40.472Z,4.62
2018-03-26T18:33:09.631Z,4.57
2018-03-26T18:35:37.986Z,4.40
2018-03-26T18:38:06.401Z,4.27
2018-03-26T18:40:35.025Z,4.22
2018-03-26T18:43:05.632Z,4.16
2018-03-26T18:45:34.536Z,4.16
2018-03-26T18:48:03.274Z,4.13
2018-03-26T18:50:32.195Z,4.08
2018-03-26T18:53:01.323Z,4.02
2018-03-26T18:55:30.177Z,3.95
2018-03-26T18:57:58.563Z,3.90
2018-03-26T19:00:26.922Z,3.85
2018-03-26T19:02:55.273Z,3.80
2018-03-26T19:05:23.996Z,3.79
2018-03-26T19:07:52.386Z,3.75
2018-03-26T19:10:20.807Z,3.71
2018-03-26T19:12:49.841Z,3.67
2018-03-26T19:15:18.604Z,3.58
2018-03-26T19:17:47.038Z,3.53
2018-03-26T19:20:15.454Z,3.52
2018-03-26T19:22:43.853Z,3.56
2018-03-26T19:25:12.683Z,3.56
2018-03-26T19:27:41.075Z,3.58
2018-03-26T19:30:10.406Z,3.61
2018-03-26T19:32:38.792Z,3.61
2018-03-26T19:35:08.060Z,3.57
2018-03-26T19:37:37.633Z,3.56
2018-03-26T19:40:07.583Z,3.55
2018-03-26T19:42:36.617Z,3.55
2018-03-26T19:45:05.329Z,3.58
2018-03-26T19:47:33.973Z,3.55
2018-03-26T19:50:02.336Z,3.56
2018-03-26T19:52:30.785Z,3.57
2018-03-26T19:54:59.574Z,3.56
2018-03-26T19:57:29.676Z,3.52
2018-03-26T19:59:58.070Z,3.49
2018-03-26T20:02:27.068Z,3.52
2018-03-26T20:04:55.417Z,3.51
2018-03-26T20:07:23.773Z,3.46
2018-03-26T20:09:52.871Z,3.41
2018-03-26T20:12:21.269Z,3.40
2018-03-26T20:14:50.482Z,3.40
2018-03-26T20:17:19.095Z,3.41
2018-03-26T20:19:47.782Z,3.45
2018-03-26T20:22:16.133Z,3.45
2018-03-26T20:24:44.505Z,3.45
2018-03-26T20:27:13.224Z,3.46
2018-03-26T20:29:41.895Z,3.46
2018-03-26T20:32:10.575Z,3.46
2018-03-26T20:34:39.654Z,3.43
2018-03-26T20:37:08.059Z,3.41
2018-03-26T20:39:36.402Z,3.33
2018-03-26T20:42:05.116Z,3.29
2018-03-26T20:44:34.212Z,3.25
2018-03-26T20:47:02.603Z,3.23
2018-03-26T20:49:32.316Z,3.25
2018-03-26T20:52:02.598Z,3.27
2018-03-26T20:54:30.980Z,3.22
2018-03-26T20:56:59.841Z,3.16
2018-03-26T20:59:28.486Z,3.14
2018-03-26T21:01:57.084Z,3.16
2018-03-26T21:04:25.757Z,3.18
2018-03-26T21:06:54.137Z,3.22
2018-03-26T21:09:22.548Z,3.25
2018-03-26T21:11:51.831Z,3.24
2018-03-26T21:14:22.774Z,3.26
2018-03-26T21:16:54.642Z,3.28
2018-03-26T21:19:23.818Z,3.25
2018-03-26T21:21:54.075Z,3.16
2018-03-26T21:24:22.642Z,3.13
2018-03-26T21:26:51.650Z,3.12
2018-03-26T21:29:20.395Z,3.08
2018-03-26T21:31:49.617Z,3.08
2018-03-26T21:34:17.958Z,3.02
2018-03-26T21:36:49.614Z,2.99
2018-03-26T21:39:18.229Z,3.01
2018-03-26T21:41:47.049Z,2.98
2018-03-26T21:44:15.501Z,2.94
2018-03-26T21:46:44.450Z,2.89
2018-03-26T21:49:13.627Z,2.84
2018-03-26T21:51:42.049Z,2.82
2018-03-26T21:54:12.869Z,2.80
2018-03-26T21:56:41.719Z,2.74
2018-03-26T21:59:10.613Z,2.72
2018-03-26T22:01:40.000Z,2.69
2018-03-26T22:04:09.573Z,2.64
2018-03-26T22:06:39.813Z,2.59
2018-03-26T22:09:08.961Z,2.54
2018-03-26T22:11:38.157Z,2.49
2018-03-26T22:14:06.744Z,2.48
2018-03-26T22:16:36.230Z,2.51
2018-03-26T22:19:05.063Z,2.50
2018-03-26T22:21:35.382Z,2.41
2018-03-26T22:24:04.864Z,2.34
2018-03-26T22:26:33.575Z,2.34
2018-03-26T22:29:01.937Z,2.35
2018-03-26T22:31:31.032Z,2.28
2018-03-26T22:34:00.843Z,2.27
2018-03-26T22:36:29.224Z,2.29
2018-03-26T22:38:57.645Z,2.31
2018-03-26T22:41:26.225Z,2.22
2018-03-26T22:43:54.790Z,2.20
2018-03-26T22:46:24.768Z,2.22
2018-03-26T22:48:53.171Z,2.20
2018-03-26T22:51:22.180Z,2.18
2018-03-26T22:53:50.857Z,2.16
2018-03-26T22:56:19.665Z,2.18
2018-03-26T23:01:20.894Z,2.25
2018-03-26T23:03:49.335Z,2.23
2018-03-26T23:06:18.427Z,2.18
2018-03-26T23:08:47.065Z,2.18
2018-03-26T23:11:15.751Z,2.24
2018-03-26T23:13:44.240Z,2.26
2018-03-26T23:16:13.355Z,2.29
2018-03-26T23:18:41.704Z,2.27
2018-03-26T23:21:10.075Z,2.23
2018-03-26T23:23:38.924Z,2.21
2018-03-26T23:26:08.263Z,2.18
2018-03-26T23:28:37.973Z,2.12
2018-03-26T23:31:07.271Z,2.11
2018-03-26T23:33:36.833Z,2.10
2018-03-26T23:36:06.256Z,2.07
2018-03-26T23:38:35.142Z,2.07
2018-03-26T23:41:03.805Z,2.09
2018-03-26T23:43:33.339Z,2.12
2018-03-26T23:46:02.006Z,2.12
2018-03-26T23:48:30.407Z,2.15
2018-03-26T23:50:59.060Z,2.13
2018-03-26T23:53:28.527Z,2.06
2018-03-26T23:55:56.868Z,2.04
2018-03-26T23:58:25.218Z,2.02
